Ana Sayfa
METAR-TAF:

METAR-TAF

Havaalanları :

Chattanooga, Tennessee, Amerika Birleşik Devletleri

Enlem: 35-02-00N, Boylam: 085-12-00W, yükseklik: 207 m

Güncel hava durumu gözlemi

Rapor saat 17:53 UTC de 39 dakika önce yapıldı.
Rüzgar değişken yönden 4 kt
Sıcaklık 34°C
Nem 30%
Basınç 1016 hPa
Görüş mesafesi: 16.1 km
25000 ft yükseklikte parçalı bulutlu

METAR: KCHA 251753Z VRB04KT 10SM SCT250 34/14 A3000 RMK AO2 SLP150 T03390144 10339 20211 56006

Saat: 14:32 (18:32 UTC)

Tahmin

Rapor saat 17:20 UTC de 1 saat ve 12 dakika önce yapıldı.
Ayın 25'si saat 18 UTC'den ayın 26'si saat 18 UTC'ye kadar geçerli Tahmin
Rüzgar değişken yönden 3 kt
Görüş mesafesi: 10 km
Açık gökyüzü

TAF: KCHA 251720Z 2518/2618 VRB03KT P6SM SKC

4.000'den fazla havaalanı için hava durumu gözlemleri ve tahminleri (METAR ve TAF raporları).

Kullanılabilir istasyonlar harita üzerinde sarı ve kırmızı noktalarla gösterilir.

İstasyonun adını görmek için fareyi noktanın üzerinde gezdirin.

Sonrasında hava gözlem ve tahminlerini görmek için tıklayın.

Haritayı değiştirmek için: yaklaştırmak için siyah artı işaretli yeşil düğmeye ve uzaklaştırmak için de eksi işaretli düğmeye hızla tıklayın; bitişik haritalar için yeşil okları kullanın.


METAR-TAF: